Time;durP1;ratioP1;P1;durP2;ratioP2;P2;SDS_P1;SDS_P2;PMS_P1;PMS_P2;Temp;Humidity;BMP_temperature;BMP_pressure;BME280_temperature;BME280_humidity;BME280_pressure;Samples;Min_cycle;Max_cycle;Signal;HPM_P1;HPM_P2
2023/01/28 00:03:10;;;;;;;5.43;4.43;;;;;;;1.02;53.77;100631.69;10406521;28;20604;-61
2023/01/28 00:08:13;;;;;;;7.20;5.63;;;;;;;0.15;54.13;100596.03;10393196;28;20232;-62
2023/01/28 00:13:15;;;;;;;5.93;5.20;;;;;;;0.07;55.64;100601.75;10411291;28;20730;-62
2023/01/28 00:18:17;;;;;;;5.47;4.80;;;;;;;0.10;55.71;100589.25;10398022;28;20241;-62
2023/01/28 00:23:18;;;;;;;4.60;4.20;;;;;;;0.59;54.46;100601.06;10408073;28;20282;-61
2023/01/28 00:28:21;;;;;;;5.77;5.20;;;;;;;0.07;55.13;100580.72;10394615;28;20616;-62
2023/01/28 00:33:23;;;;;;;5.77;5.17;;;;;;;0.00;55.33;100580.25;10410711;28;20243;-62
2023/01/28 00:38:25;;;;;;;5.07;4.10;;;;;;;-0.30;55.35;100575.09;10440598;28;20645;-62
2023/01/28 00:43:27;;;;;;;5.93;5.30;;;;;;;0.33;55.05;100594.88;10440545;28;20235;-62
2023/01/28 00:48:28;;;;;;;4.87;4.20;;;;;;;-0.48;56.35;100585.81;10439266;28;20241;-61
2023/01/28 00:53:30;;;;;;;4.03;3.30;;;;;;;0.21;55.44;100617.56;10433399;28;20239;-61
2023/01/28 00:58:32;;;;;;;4.17;3.77;;;;;;;-0.26;55.25;100589.78;10437543;28;20247;-62
2023/01/28 01:03:34;;;;;;;4.37;3.97;;;;;;;-0.48;55.90;100611.28;10432352;28;20245;-62
2023/01/28 01:08:38;;;;;;;4.13;3.73;;;;;;;-0.01;54.29;100599.63;10439924;28;20609;-63
2023/01/28 01:13:40;;;;;;;4.87;4.37;;;;;;;-0.93;56.43;100592.84;10439867;28;20267;-62
2023/01/28 01:18:42;;;;;;;3.60;3.30;;;;;;;0.20;54.84;100609.75;10439172;28;20237;-62
2023/01/28 01:23:45;;;;;;;4.00;3.60;;;;;;;0.60;54.16;100596.69;10440576;28;20267;-63
2023/01/28 01:28:47;;;;;;;4.80;4.30;;;;;;;0.14;54.77;100587.31;10439183;28;20266;-62
2023/01/28 01:33:50;;;;;;;4.40;3.60;;;;;;;0.95;53.67;100626.00;10434059;28;20243;-62
2023/01/28 01:38:53;;;;;;;4.80;4.40;;;;;;;1.25;53.08;100632.78;10437533;28;20242;-62
2023/01/28 01:43:57;;;;;;;4.17;3.87;;;;;;;1.68;52.55;100658.09;10439510;28;20711;-62
2023/01/28 01:49:14;;;;;;;4.37;3.97;;;;;;;1.38;52.50;100649.50;10438535;28;20234;-62
2023/01/28 01:54:17;;;;;;;4.17;3.77;;;;;;;1.44;53.02;100650.91;10438090;28;20596;-62
2023/01/28 01:59:27;;;;;;;4.37;3.97;;;;;;;0.89;54.03;100625.53;10433270;28;20629;-62
2023/01/28 02:04:37;;;;;;;4.57;4.17;;;;;;;-0.48;57.15;100574.47;10429051;28;20234;-63
2023/01/28 02:09:40;;;;;;;8.93;4.00;;;;;;;1.42;54.33;100639.59;10437147;28;20239;-62
2023/01/28 02:14:46;;;;;;;5.13;4.17;;;;;;;0.68;55.21;100613.66;10400456;28;20238;-63
2023/01/28 02:19:56;;;;;;;5.23;4.73;;;;;;;0.59;55.89;100621.31;10430847;28;20254;-62
2023/01/28 02:25:18;;;;;;;5.30;4.50;;;;;;;-0.10;57.03;100587.91;10434147;28;20249;-62
2023/01/28 02:30:31;;;;;;;5.30;4.30;;;;;;;0.43;55.92;100600.41;10369982;28;20709;-61
2023/01/28 02:35:48;;;;;;;5.53;4.70;;;;;;;-0.41;57.78;100578.41;10392905;28;20695;-60
2023/01/28 02:41:02;;;;;;;5.20;4.73;;;;;;;-0.45;58.58;100566.38;10393618;28;20231;-60
2023/01/28 02:51:59;;;;;;;7.20;5.23;;;;;;;-0.13;59.57;100566.16;10390791;28;20732;-60
2023/01/28 02:57:22;;;;;;;6.00;5.40;;;;;;;-0.08;60.21;100577.25;10392820;28;20235;-60
2023/01/28 03:02:35;;;;;;;6.80;5.57;;;;;;;0.88;58.74;100598.31;10411654;28;20235;-60
2023/01/28 03:07:38;;;;;;;7.13;6.03;;;;;;;-0.10;60.54;100574.75;10431886;28;20312;-60
2023/01/28 03:40:13;;;;;;;6.83;6.07;;;;;;;-0.45;61.05;100533.03;10433035;28;20231;-61
2023/01/28 03:45:15;;;;;;;7.77;6.97;;;;;;;-0.13;61.93;100563.53;10395134;28;20251;-61
2023/01/28 03:50:17;;;;;;;7.23;6.33;;;;;;;0.66;59.58;100565.50;10399641;28;20231;-59
2023/01/28 03:55:19;;;;;;;8.23;6.20;;;;;;;0.50;60.64;100564.81;10401655;28;20235;-61
2023/01/28 04:00:22;;;;;;;7.97;6.73;;;;;;;0.65;60.88;100576.16;10437691;28;20242;-60
2023/01/28 04:05:24;;;;;;;6.90;6.20;;;;;;;0.41;60.97;100573.28;10389255;28;20246;-59
2023/01/28 04:10:26;;;;;;;8.03;6.80;;;;;;;-0.16;62.19;100554.06;10405598;28;20752;-61
2023/01/28 04:15:29;;;;;;;7.77;6.60;;;;;;;0.12;61.79;100558.44;10394025;28;20617;-61
2023/01/28 04:20:31;;;;;;;9.20;6.90;;;;;;;-0.07;61.99;100568.41;10404726;28;20236;-60
2023/01/28 04:25:33;;;;;;;8.43;6.70;;;;;;;-0.15;62.65;100561.00;10403073;28;20730;-59
2023/01/28 04:30:35;;;;;;;8.53;6.70;;;;;;;0.24;62.46;100563.84;10400404;28;20246;-61
2023/01/28 04:35:37;;;;;;;8.63;6.90;;;;;;;-0.49;63.37;100552.56;10438240;28;20289;-61
2023/01/28 04:40:38;;;;;;;8.27;7.23;;;;;;;-0.51;63.18;100545.72;10439637;28;20239;-61
2023/01/28 04:45:40;;;;;;;8.30;6.43;;;;;;;-0.71;64.08;100552.97;10435942;28;20249;-61
2023/01/28 04:50:42;;;;;;;8.37;6.50;;;;;;;-0.55;62.95;100547.69;10438756;28;20227;-59
2023/01/28 04:55:44;;;;;;;7.70;6.90;;;;;;;-0.56;63.52;100553.03;10435526;28;20620;-60
2023/01/28 05:00:46;;;;;;;9.37;7.53;;;;;;;-0.06;61.91;100539.38;10435883;28;20243;-60
2023/01/28 05:05:47;;;;;;;7.53;6.73;;;;;;;0.04;62.54;100550.19;10435455;28;20386;-60
2023/01/28 05:10:49;;;;;;;8.43;7.30;;;;;;;0.05;61.00;100551.84;10438059;28;20238;-60
2023/01/28 05:15:52;;;;;;;8.50;6.80;;;;;;;-0.84;63.50;100549.41;10435411;28;20721;-64
2023/01/28 05:20:53;;;;;;;8.30;7.50;;;;;;;-0.83;63.06;100549.31;10430056;28;20616;-61
2023/01/28 05:25:55;;;;;;;9.03;7.60;;;;;;;-0.75;63.52;100559.38;10400877;28;20345;-62
2023/01/28 05:31:05;;;;;;;7.30;6.13;;;;;;;-0.67;63.22;100546.63;10458146;28;20238;-61
2023/01/28 05:36:07;;;;;;;6.77;6.07;;;;;;;-0.13;63.20;100559.13;10434284;28;20854;-60
2023/01/28 05:41:09;;;;;;;7.93;6.40;;;;;;;-0.71;64.05;100558.25;10436497;28;20234;-60
2023/01/28 05:46:11;;;;;;;10.67;7.03;;;;;;;-0.56;63.28;100550.41;10434773;28;20623;-60
2023/01/28 05:51:12;;;;;;;6.97;6.27;;;;;;;-0.66;63.69;100557.97;10434224;28;20254;-61
2023/01/28 05:56:14;;;;;;;6.47;5.87;;;;;;;-0.58;63.32;100557.53;10431057;28;20318;-61
2023/01/28 06:01:15;;;;;;;7.53;6.63;;;;;;;-0.18;62.40;100576.13;10434466;28;20241;-60
2023/01/28 06:06:17;;;;;;;6.80;6.10;;;;;;;-1.17;64.09;100569.69;10432568;28;20229;-58
2023/01/28 06:11:19;;;;;;;9.80;8.80;;;;;;;0.34;62.47;100590.44;10432575;28;20242;-61
2023/01/28 06:16:20;;;;;;;7.90;7.10;;;;;;;-0.41;62.50;100570.50;10432552;28;20624;-61
2023/01/28 06:21:22;;;;;;;8.30;6.33;;;;;;;0.13;61.81;100596.13;10431694;28;20579;-61
2023/01/28 06:26:24;;;;;;;7.47;6.30;;;;;;;-0.40;61.12;100597.66;10427101;28;20238;-60
2023/01/28 06:31:25;;;;;;;9.27;7.63;;;;;;;0.17;61.14;100609.94;10434072;28;20241;-60
2023/01/28 06:36:27;;;;;;;8.63;7.73;;;;;;;-0.99;62.01;100593.22;10432774;28;20254;-61
2023/01/28 06:41:29;;;;;;;7.97;6.50;;;;;;;-0.13;61.93;100619.66;10433993;28;20231;-61
2023/01/28 06:46:30;;;;;;;9.37;8.43;;;;;;;0.19;61.54;100623.84;10430785;28;20244;-61
2023/01/28 06:51:32;;;;;;;9.83;8.83;;;;;;;0.06;60.63;100621.97;10433627;28;20238;-61
2023/01/28 06:56:34;;;;;;;8.53;6.57;;;;;;;-0.34;61.82;100623.59;10433374;28;20235;-61
2023/01/28 07:01:36;;;;;;;7.17;6.47;;;;;;;0.45;61.06;100652.00;10433261;28;20238;-61
2023/01/28 07:06:38;;;;;;;6.70;5.60;;;;;;;-0.09;62.02;100636.09;10430490;28;20231;-60
2023/01/28 07:11:39;;;;;;;5.90;5.30;;;;;;;-0.36;62.08;100649.13;10432608;28;20262;-60
2023/01/28 07:16:41;;;;;;;7.37;6.57;;;;;;;-0.53;61.84;100643.09;10431020;28;20782;-61
2023/01/28 07:21:43;;;;;;;7.93;5.73;;;;;;;-0.41;62.08;100648.56;10438677;28;20238;-60
2023/01/28 07:26:46;;;;;;;8.87;7.97;;;;;;;0.22;60.02;100669.25;10440008;28;20239;-61
2023/01/28 07:31:48;;;;;;;5.83;5.13;;;;;;;0.11;61.55;100669.91;10440501;28;20249;-59
2023/01/28 07:36:50;;;;;;;6.73;5.83;;;;;;;0.35;59.14;100684.31;10439912;28;20278;-61
2023/01/28 07:41:51;;;;;;;5.77;5.20;;;;;;;0.76;59.70;100705.38;10439747;28;20741;-61
2023/01/28 07:46:53;;;;;;;6.70;5.60;;;;;;;0.34;60.04;100690.50;10438831;28;20243;-61
2023/01/28 07:51:55;;;;;;;6.13;5.53;;;;;;;-0.46;60.44;100662.81;10438651;28;20243;-61
2023/01/28 07:56:56;;;;;;;6.80;6.07;;;;;;;0.89;59.37;100730.97;10438520;28;20243;-61
2023/01/28 08:01:58;;;;;;;7.23;6.00;;;;;;;-0.26;61.21;100698.47;10438611;28;20239;-61
2023/01/28 08:06:59;;;;;;;7.93;6.97;;;;;;;-0.36;61.00;100693.84;10440057;28;20235;-60
2023/01/28 08:12:02;;;;;;;6.30;5.50;;;;;;;-0.54;62.51;100701.88;10438806;28;20317;-61
2023/01/28 08:17:03;;;;;;;8.03;6.43;;;;;;;-0.64;62.09;100706.81;10438499;28;20241;-61
2023/01/28 08:22:05;;;;;;;8.10;7.30;;;;;;;0.53;60.74;100732.31;10440033;28;20330;-61
2023/01/28 08:27:07;;;;;;;10.67;9.30;;;;;;;-0.03;60.29;100727.81;10437275;28;20300;-60
2023/01/28 08:32:09;;;;;;;14.00;8.37;;;;;;;-0.09;61.51;100728.19;10437740;28;20240;-60
2023/01/28 08:37:11;;;;;;;9.67;8.67;;;;;;;0.37;61.04;100749.06;10436951;28;20253;-61
2023/01/28 08:42:12;;;;;;;9.27;7.50;;;;;;;0.29;60.83;100741.66;10436984;28;20241;-61
2023/01/28 08:47:14;;;;;;;7.80;6.80;;;;;;;0.40;61.20;100756.78;10439451;28;20810;-60
2023/01/28 08:52:16;;;;;;;10.30;7.53;;;;;;;0.71;60.95;100775.13;10438504;28;20245;-61
2023/01/28 08:57:17;;;;;;;17.57;12.33;;;;;;;0.10;62.42;100759.50;10436521;28;20239;-61
2023/01/28 09:02:19;;;;;;;11.40;9.30;;;;;;;0.13;61.67;100743.53;10435181;28;20285;-60
2023/01/28 09:07:34;;;;;;;11.93;9.70;;;;;;;-0.38;62.79;100738.66;10433240;28;20308;-61
2023/01/28 09:12:36;;;;;;;9.57;7.70;;;;;;;0.27;61.59;100756.69;10432317;28;20239;-60
2023/01/28 09:17:38;;;;;;;9.70;7.40;;;;;;;0.09;61.72;100755.16;10436410;28;20231;-61
2023/01/28 09:22:40;;;;;;;37.57;25.73;;;;;;;0.61;61.20;100774.84;10434874;28;20228;-61
2023/01/28 09:27:42;;;;;;;13.70;11.60;;;;;;;0.77;61.03;100787.91;10432053;28;20231;-61
2023/01/28 09:32:43;;;;;;;10.13;8.00;;;;;;;1.10;60.62;100808.69;10436029;28;20251;-60
2023/01/28 09:37:46;;;;;;;9.87;8.87;;;;;;;1.00;60.16;100821.59;10436115;28;20242;-61
2023/01/28 09:42:57;;;;;;;9.93;7.73;;;;;;;0.42;61.18;100793.56;10435760;28;20250;-61
2023/01/28 09:48:02;;;;;;;8.87;7.30;;;;;;;0.88;59.33;100835.50;10434273;28;20238;-61
2023/01/28 09:53:18;;;;;;;8.53;7.07;;;;;;;0.81;59.15;100837.69;10431169;28;20561;-60
2023/01/28 09:58:20;;;;;;;12.80;10.93;;;;;;;-0.45;61.18;100768.88;10431950;28;20230;-60
2023/01/28 10:03:41;;;;;;;8.30;6.97;;;;;;;1.38;59.08;100886.88;10432196;28;20657;-61
2023/01/28 10:08:59;;;;;;;9.83;7.40;;;;;;;0.38;60.68;100818.41;10432549;28;20231;-62
2023/01/28 10:14:06;;;;;;;7.70;6.67;;;;;;;1.46;58.71;100882.94;10434582;28;20391;-62
2023/01/28 10:19:22;;;;;;;9.57;8.27;;;;;;;0.72;59.67;100834.78;10434856;28;20243;-60
2023/01/28 10:24:34;;;;;;;7.67;6.50;;;;;;;2.14;57.64;100940.09;10433132;28;20245;-62
2023/01/28 10:29:38;;;;;;;7.53;6.50;;;;;;;0.90;58.36;100844.19;10432940;28;20342;-61
2023/01/28 10:34:40;;;;;;;7.43;6.50;;;;;;;1.31;58.11;100869.75;10434369;28;20239;-59
2023/01/28 10:39:43;;;;;;;8.07;6.40;;;;;;;1.43;57.88;100889.25;10432951;28;20249;-61
2023/01/28 10:44:47;;;;;;;7.13;5.93;;;;;;;1.71;57.76;100912.06;10431965;28;20981;-60
2023/01/28 10:49:54;;;;;;;8.30;7.50;;;;;;;1.08;58.25;100876.44;10434325;28;20243;-60
2023/01/28 10:55:04;;;;;;;9.47;8.47;;;;;;;0.93;58.83;100861.59;10430768;28;20327;-61
2023/01/28 11:06:26;;;;;;;8.30;7.40;;;;;;;-1.49;66.34;100876.09;10577113;27;20358;-60
2023/01/28 11:11:29;;;;;;;11.73;10.53;;;;;;;-1.86;66.74;100841.22;10438385;28;20234;-62
2023/01/28 11:16:30;;;;;;;9.20;8.30;;;;;;;-1.74;66.33;100816.97;10473900;28;20242;-61
2023/01/28 11:21:34;;;;;;;9.50;7.20;;;;;;;-1.47;66.15;100807.75;10469524;28;20257;-61
2023/01/28 11:26:38;;;;;;;8.20;7.17;;;;;;;-1.24;66.02;100807.38;10467142;28;20234;-61
2023/01/28 11:31:43;;;;;;;9.70;7.53;;;;;;;-1.65;66.06;100786.78;10467595;28;20328;-62
2023/01/28 11:36:53;;;;;;;8.43;7.33;;;;;;;-1.39;66.00;100784.56;10468522;28;20614;-61
2023/01/28 11:42:13;;;;;;;7.77;6.73;;;;;;;-1.84;65.59;100778.16;10453344;28;20236;-62
2023/01/28 11:47:30;;;;;;;10.23;7.27;;;;;;;-1.05;64.44;100786.19;10431560;28;20234;-62
2023/01/28 11:52:47;;;;;;;7.17;6.47;;;;;;;-1.17;64.19;100778.97;10471787;28;20605;-61
2023/01/28 11:58:19;;;;;;;7.63;6.70;;;;;;;-0.82;63.85;100776.19;10471612;28;20240;-61
2023/01/28 12:03:52;;;;;;;8.40;6.93;;;;;;;-0.92;63.47;100772.38;10431385;28;20231;-61
2023/01/28 12:09:05;;;;;;;7.13;6.43;;;;;;;-1.28;63.18;100761.16;10451853;28;20243;-60
2023/01/28 12:14:15;;;;;;;10.40;8.37;;;;;;;-0.94;62.99;100774.22;10458145;28;20693;-60
2023/01/28 12:19:44;;;;;;;8.00;6.60;;;;;;;-0.39;62.56;100770.31;10435658;28;20259;-61
2023/01/28 12:25:24;;;;;;;8.67;7.23;;;;;;;-0.21;62.31;100766.59;10436521;28;20238;-62
2023/01/28 12:30:26;;;;;;;6.87;6.17;;;;;;;-0.72;62.92;100764.22;10436276;28;20235;-61
2023/01/28 12:35:42;;;;;;;6.97;6.27;;;;;;;-0.17;61.64;100778.63;10430680;28;20220;-62
2023/01/28 12:40:49;;;;;;;7.33;6.10;;;;;;;-0.46;62.50;100756.66;10395505;28;20246;-60
2023/01/28 12:45:59;;;;;;;7.27;6.33;;;;;;;-0.34;62.29;100769.09;10436832;28;20245;-60
2023/01/28 12:51:03;;;;;;;10.80;6.70;;;;;;;0.05;61.75;100790.50;10435355;28;20236;-60
2023/01/28 12:56:18;;;;;;;7.67;5.83;;;;;;;-0.26;61.19;100766.03;10441394;28;20669;-61
2023/01/28 13:01:38;;;;;;;7.13;5.77;;;;;;;-1.02;62.25;100749.25;10442299;28;20311;-61
2023/01/28 13:06:45;;;;;;;8.97;6.07;;;;;;;-0.03;61.11;100784.84;10424544;28;20236;-62
2023/01/28 13:11:50;;;;;;;8.23;6.63;;;;;;;-0.00;60.69;100784.69;10397020;28;20246;-62
2023/01/28 13:16:51;;;;;;;8.30;5.73;;;;;;;-0.45;61.29;100771.50;10435583;28;20250;-61
2023/01/28 13:21:53;;;;;;;6.33;5.70;;;;;;;0.53;59.63;100813.97;10436284;28;20945;-61
2023/01/28 13:26:56;;;;;;;7.17;5.70;;;;;;;-0.23;60.65;100783.41;10434610;28;20281;-60
2023/01/28 13:32:00;;;;;;;7.23;5.53;;;;;;;-0.98;61.42;100774.41;10436904;28;20235;-60
2023/01/28 13:37:14;;;;;;;7.33;5.93;;;;;;;0.04;60.30;100815.13;10433149;28;20629;-62
2023/01/28 13:42:25;;;;;;;8.67;6.80;;;;;;;-0.63;60.44;100792.63;10435473;28;20247;-61
2023/01/28 13:47:32;;;;;;;7.37;6.67;;;;;;;-0.51;59.79;100799.00;10433760;28;20587;-61
2023/01/28 13:52:48;;;;;;;7.20;5.43;;;;;;;0.06;59.15;100829.06;10408661;28;20229;-61
2023/01/28 13:57:52;;;;;;;6.70;5.33;;;;;;;-0.37;59.05;100819.22;10405964;28;20238;-61
2023/01/28 14:03:30;;;;;;;6.10;5.43;;;;;;;0.45;57.55;100859.22;10432859;28;20254;-61
2023/01/28 14:08:50;;;;;;;5.67;5.17;;;;;;;-0.65;58.37;100819.94;10430394;28;20234;-61
2023/01/28 14:13:57;;;;;;;5.67;5.07;;;;;;;-0.11;59.24;100862.47;10430510;28;20694;-62
2023/01/28 14:19:01;;;;;;;6.40;5.40;;;;;;;-0.12;59.07;100887.06;10436009;28;20239;-62
2023/01/28 14:24:04;;;;;;;5.47;4.70;;;;;;;-0.17;58.88;100873.34;10434249;28;20241;-61
2023/01/28 14:29:12;;;;;;;7.03;5.60;;;;;;;0.24;58.77;100908.72;10431130;28;20674;-62
2023/01/28 14:34:22;;;;;;;8.03;5.30;;;;;;;-0.14;57.79;100888.13;10450637;22;20440;-37
2023/01/28 14:39:43;;;;;;;5.30;4.80;;;;;;;-0.37;58.10;100892.88;10447338;28;20239;-38
2023/01/28 14:44:47;;;;;;;6.30;4.60;;;;;;;-0.25;58.22;100910.63;10429579;28;20239;-37
2023/01/28 14:50:19;;;;;;;4.53;4.13;;;;;;;-0.67;58.29;100885.75;10408172;28;20245;-37
2023/01/28 14:55:33;;;;;;;5.10;4.33;;;;;;;-0.00;57.71;100924.16;10393529;28;20641;-37
2023/01/28 15:00:35;;;;;;;5.10;4.60;;;;;;;-0.34;57.24;100919.00;10406817;28;20236;-38
2023/01/28 15:05:36;;;;;;;4.97;4.47;;;;;;;-0.19;57.45;100919.09;10409131;28;20251;-36
2023/01/28 15:10:38;;;;;;;4.37;4.00;;;;;;;-0.33;57.81;100931.25;10400839;28;20799;-37
2023/01/28 15:15:47;;;;;;;4.83;4.43;;;;;;;-0.17;56.92;100939.13;10402258;28;20252;-38
2023/01/28 15:20:54;;;;;;;12.60;9.23;;;;;;;0.59;56.92;100972.50;10392660;28;20236;-37
2023/01/28 15:25:56;;;;;;;7.20;6.00;;;;;;;0.44;57.08;100973.41;10398529;28;20996;-37
2023/01/28 15:30:58;;;;;;;6.20;5.57;;;;;;;-0.14;58.23;100951.28;10396901;28;20232;-37
2023/01/28 15:36:00;;;;;;;5.97;4.97;;;;;;;-0.39;57.79;100955.25;10381447;28;20291;-38
2023/01/28 15:41:04;;;;;;;5.80;5.20;;;;;;;-0.05;57.82;100977.06;10373674;28;20235;-38
2023/01/28 15:46:12;;;;;;;7.27;5.63;;;;;;;-0.54;58.25;100961.34;10379813;28;20888;-36
2023/01/28 15:51:26;;;;;;;7.67;6.33;;;;;;;0.09;57.87;100974.50;10377046;28;21006;-37
2023/01/28 15:56:29;;;;;;;8.13;5.93;;;;;;;-0.71;59.03;100965.69;10395006;28;20231;-37
2023/01/28 16:01:31;;;;;;;7.27;6.13;;;;;;;-0.70;58.46;100954.25;10404450;28;20244;-38
2023/01/28 16:06:38;;;;;;;6.40;5.53;;;;;;;0.47;57.08;100991.66;10401478;28;20232;-37
2023/01/28 16:11:43;;;;;;;6.33;5.73;;;;;;;0.89;55.66;101026.97;10402138;28;20233;-38
2023/01/28 16:16:47;;;;;;;8.83;7.33;;;;;;;0.05;58.00;100978.22;10390994;28;20243;-38
2023/01/28 16:21:49;;;;;;;6.07;5.43;;;;;;;1.06;55.67;101044.44;10384276;28;20302;-37
2023/01/28 16:27:18;;;;;;;7.23;6.30;;;;;;;-0.36;57.87;100977.91;10381541;28;20611;-37
2023/01/28 16:32:30;;;;;;;6.60;5.50;;;;;;;-0.35;57.01;100979.59;10372810;28;20250;-37
2023/01/28 16:37:32;;;;;;;6.47;5.50;;;;;;;-0.32;56.71;100982.91;10385598;28;20240;-37
2023/01/28 16:42:34;;;;;;;8.13;6.10;;;;;;;-1.22;58.36;100965.72;10389136;28;20238;-37
2023/01/28 16:47:35;;;;;;;6.67;5.97;;;;;;;-0.66;57.88;100965.47;10384107;28;20236;-37
2023/01/28 16:52:40;;;;;;;6.83;6.10;;;;;;;-0.26;58.29;100992.25;10385586;28;20293;-37
2023/01/28 16:57:43;;;;;;;7.70;6.40;;;;;;;-0.84;58.17;100973.41;10382426;28;20723;-37
2023/01/28 17:02:45;;;;;;;8.83;6.33;;;;;;;-1.41;58.89;100955.31;10391320;28;20255;-38
2023/01/28 17:07:48;;;;;;;7.07;6.37;;;;;;;-1.17;58.60;100992.59;10386407;28;20271;-37
2023/01/28 17:12:50;;;;;;;10.50;7.00;;;;;;;-0.49;58.66;101018.00;10394834;28;20232;-37
2023/01/28 17:17:52;;;;;;;8.70;6.70;;;;;;;-0.26;56.92;101011.50;10393421;28;20253;-37
2023/01/28 17:22:54;;;;;;;7.50;6.53;;;;;;;-1.02;58.81;101014.63;10388173;28;20224;-38
2023/01/28 17:27:55;;;;;;;8.17;6.50;;;;;;;-0.78;58.24;101016.06;10391914;28;20616;-37
2023/01/28 17:32:57;;;;;;;8.30;7.50;;;;;;;-0.43;58.30;101017.69;10380155;28;20246;-37
2023/01/28 17:37:59;;;;;;;9.63;6.87;;;;;;;-1.25;59.15;101023.66;10386746;28;20241;-37
2023/01/28 17:43:01;;;;;;;8.17;7.07;;;;;;;-1.02;58.98;101024.28;10390405;28;20708;-37
2023/01/28 17:48:02;;;;;;;8.53;6.80;;;;;;;-1.22;58.79;101028.75;10388022;28;20239;-37
2023/01/28 17:53:04;;;;;;;7.83;6.23;;;;;;;-0.46;57.68;101024.91;10387440;28;20234;-37
2023/01/28 17:58:06;;;;;;;7.70;6.53;;;;;;;-1.15;58.18;101031.09;10384181;28;20597;-37
2023/01/28 18:03:11;;;;;;;7.70;6.43;;;;;;;-1.32;58.21;101029.31;10381095;28;20239;-37
2023/01/28 18:08:12;;;;;;;9.00;6.70;;;;;;;-1.07;58.36;101044.69;10383038;28;20267;-36
2023/01/28 18:13:14;;;;;;;7.07;6.13;;;;;;;-1.84;59.12;101037.94;10377984;28;20222;-36
2023/01/28 18:18:16;;;;;;;6.83;6.13;;;;;;;-1.67;58.82;101055.50;10382980;28;20605;-36
2023/01/28 18:23:17;;;;;;;8.97;7.77;;;;;;;-2.12;59.16;101055.84;10372523;28;20237;-37
2023/01/28 18:28:19;;;;;;;8.00;6.70;;;;;;;-1.83;58.69;101056.25;10374553;28;20234;-37
2023/01/28 18:33:22;;;;;;;8.23;6.57;;;;;;;-1.39;58.12;101065.53;10376902;28;20243;-37
2023/01/28 18:38:24;;;;;;;13.40;9.50;;;;;;;-2.09;58.25;101064.47;10377903;28;20239;-37
2023/01/28 18:43:26;;;;;;;7.63;5.90;;;;;;;-1.38;57.75;101060.22;10379074;28;20934;-37
2023/01/28 18:48:28;;;;;;;8.00;6.33;;;;;;;-1.32;57.73;101077.44;10382138;28;20246;-37
2023/01/28 18:53:30;;;;;;;7.80;7.00;;;;;;;-1.81;58.71;101083.25;10384421;28;20234;-37
2023/01/28 18:58:32;;;;;;;7.70;6.00;;;;;;;-1.26;57.41;101073.63;10378238;28;20240;-37
2023/01/28 19:03:34;;;;;;;7.60;6.87;;;;;;;-0.88;56.87;101071.72;10373663;28;20231;-37
2023/01/28 19:08:36;;;;;;;7.50;6.70;;;;;;;-2.28;58.40;101069.72;10383652;28;20242;-37
2023/01/28 19:13:38;;;;;;;8.17;7.37;;;;;;;-2.17;57.71;101083.19;10371910;28;20751;-37
2023/01/28 19:18:40;;;;;;;8.53;7.63;;;;;;;-2.30;57.49;101081.13;10380296;28;20230;-37
2023/01/28 19:23:42;;;;;;;8.37;6.43;;;;;;;-1.66;57.21;101089.56;10372343;28;20259;-36
2023/01/28 19:28:51;;;;;;;7.77;6.93;;;;;;;-1.85;56.65;101084.34;10385417;28;20648;-36
2023/01/28 19:33:55;;;;;;;7.20;6.50;;;;;;;-1.49;55.37;101066.91;10382440;28;20238;-37
2023/01/28 19:38:58;;;;;;;9.23;7.40;;;;;;;-2.08;56.94;101087.19;10379456;28;20235;-36
2023/01/28 19:44:00;;;;;;;7.23;6.43;;;;;;;-0.84;54.92;101073.28;10385336;28;20232;-36
2023/01/28 19:49:05;;;;;;;8.50;6.50;;;;;;;-1.07;55.33;101098.09;10391456;28;20333;-37
2023/01/28 19:54:07;;;;;;;9.70;7.07;;;;;;;-2.43;56.15;101110.56;10394490;28;20230;-36
2023/01/28 19:59:08;;;;;;;7.23;6.00;;;;;;;-1.83;55.86;101131.50;10392941;28;20760;-37
2023/01/28 20:04:10;;;;;;;8.33;6.57;;;;;;;-1.86;55.02;101134.28;10395062;28;20228;-37
2023/01/28 20:09:15;;;;;;;7.20;6.50;;;;;;;-1.94;55.20;101150.34;10391216;28;20648;-36
2023/01/28 20:14:18;;;;;;;7.63;6.17;;;;;;;-2.15;55.65;101158.25;10382746;28;20234;-37
2023/01/28 20:19:20;;;;;;;7.37;5.60;;;;;;;-2.14;55.72;101185.34;10390331;28;20730;-36
2023/01/28 20:24:22;;;;;;;7.97;6.23;;;;;;;-2.30;55.14;101182.53;10390402;28;20242;-36
2023/01/28 20:29:24;;;;;;;8.10;5.67;;;;;;;-1.90;54.80;101178.16;10396195;28;20329;-36
2023/01/28 20:34:26;;;;;;;7.43;6.67;;;;;;;-2.26;54.94;101199.84;10383590;28;20252;-38
2023/01/28 20:39:27;;;;;;;7.27;6.37;;;;;;;-1.40;54.04;101167.06;10393282;28;20229;-37
2023/01/28 20:44:30;;;;;;;9.37;6.70;;;;;;;-2.13;54.72;101187.06;10390857;28;20239;-36
2023/01/28 20:49:32;;;;;;;6.97;6.27;;;;;;;-2.39;54.93;101196.03;10383111;28;20234;-37
2023/01/28 20:54:34;;;;;;;8.07;6.87;;;;;;;-1.34;53.12;101172.97;10381466;28;20237;-37
2023/01/28 20:59:36;;;;;;;8.07;5.83;;;;;;;-2.11;53.23;101208.81;10383239;28;20245;-37
2023/01/28 21:04:38;;;;;;;6.80;6.10;;;;;;;-2.18;53.49;101220.50;10379845;28;20245;-37
2023/01/28 21:09:39;;;;;;;7.53;6.27;;;;;;;-2.40;53.98;101213.53;10386618;28;20235;-37
2023/01/28 21:14:41;;;;;;;7.43;6.73;;;;;;;-1.48;52.75;101195.50;10385324;28;20251;-36
2023/01/28 21:19:43;;;;;;;7.03;5.87;;;;;;;-2.25;52.95;101208.56;10385025;28;20243;-37
2023/01/28 21:24:47;;;;;;;7.83;6.97;;;;;;;-2.46;53.47;101220.81;10383010;28;20240;-37
2023/01/28 21:29:49;;;;;;;7.17;6.40;;;;;;;-1.89;52.51;101221.84;10387009;28;20807;-37
2023/01/28 21:34:51;;;;;;;7.40;6.60;;;;;;;-2.25;52.65;101237.44;10385058;28;20224;-37
2023/01/28 21:39:53;;;;;;;14.50;7.20;;;;;;;-1.78;52.94;101224.84;10383375;28;20246;-37
2023/01/28 21:44:54;;;;;;;8.47;6.13;;;;;;;-1.58;52.46;101226.56;10381966;28;20241;-37
2023/01/28 21:49:56;;;;;;;10.03;6.67;;;;;;;-2.19;53.91;101242.38;10378847;28;20247;-37
2023/01/28 21:54:58;;;;;;;8.53;6.63;;;;;;;-2.56;53.92;101251.78;10381941;28;20320;-37
2023/01/28 22:00:00;;;;;;;7.37;6.67;;;;;;;-2.69;53.23;101268.03;10379610;28;20795;-37
2023/01/28 22:05:02;;;;;;;8.37;6.57;;;;;;;-2.58;53.25;101269.34;10376670;28;20230;-37
2023/01/28 22:10:04;;;;;;;6.83;6.20;;;;;;;-2.93;53.36;101264.63;10384383;28;20882;-37
2023/01/28 22:15:07;;;;;;;9.63;6.73;;;;;;;-2.06;53.14;101248.81;10375447;28;20977;-37
2023/01/28 22:20:09;;;;;;;8.10;7.03;;;;;;;-1.74;52.79;101230.81;10382168;28;20238;-37
2023/01/28 22:25:11;;;;;;;8.33;7.07;;;;;;;-1.85;52.52;101238.28;10384173;28;20723;-37
2023/01/28 22:30:13;;;;;;;7.70;6.87;;;;;;;-1.56;52.82;101232.59;10384550;28;20241;-37
2023/01/28 22:35:15;;;;;;;6.63;5.93;;;;;;;-2.67;53.35;101260.94;10377579;28;20229;-37
2023/01/28 22:40:17;;;;;;;7.90;6.93;;;;;;;-2.34;52.61;101247.38;10421886;28;20236;-37
2023/01/28 22:45:19;;;;;;;7.23;6.17;;;;;;;-1.85;53.17;101214.69;10383393;28;20256;-37
2023/01/28 22:50:20;;;;;;;8.43;7.40;;;;;;;-2.24;53.02;101239.13;10417652;28;20613;-37
2023/01/28 22:55:22;;;;;;;7.23;6.30;;;;;;;-2.10;52.26;101234.13;10426513;28;20227;-37
2023/01/28 23:00:26;;;;;;;10.03;7.23;;;;;;;-1.26;51.54;101200.59;10415554;28;20261;-37
2023/01/28 23:05:28;;;;;;;8.63;6.93;;;;;;;-1.40;52.00;101201.22;10420849;28;20256;-37
2023/01/28 23:10:30;;;;;;;9.07;7.10;;;;;;;-1.56;51.47;101208.97;10417882;28;20229;-37
2023/01/28 23:26:17;;;;;;;9.30;7.20;;;;;;;-1.27;51.25;101198.88;10418738;28;20232;-37
2023/01/28 23:31:19;;;;;;;8.27;6.43;;;;;;;-2.24;52.16;101241.72;10418108;28;20243;-37
2023/01/28 23:36:21;;;;;;;8.13;7.33;;;;;;;-1.90;52.22;101235.03;10414532;28;20242;-37
2023/01/28 23:41:23;;;;;;;8.27;7.40;;;;;;;-1.49;51.18;101206.06;10426697;28;20232;-37
2023/01/28 23:46:24;;;;;;;10.63;7.30;;;;;;;-1.93;51.50;101230.78;10420304;28;20240;-37
2023/01/28 23:51:40;;;;;;;9.07;7.67;;;;;;;-1.25;51.79;101204.91;10413616;28;20740;-37
2023/01/28 23:56:42;;;;;;;8.33;7.07;;;;;;;-1.77;51.96;101223.06;10402964;28;20238;-37
